Time;durP1;ratioP1;P1;durP2;ratioP2;P2;SDS_P1;SDS_P2;PMS_P1;PMS_P2;Temp;Humidity;BMP_temperature;BMP_pressure;BME280_temperature;BME280_humidity;BME280_pressure;Samples;Min_cycle;Max_cycle;Signal;HPM_P1;HPM_P2
2023/01/08 00:01:09;;;;;;;8.23;4.95;;;5.70;95.70;;;;;;4970594;28;20412;-67
2023/01/08 00:03:34;;;;;;;;;;;5.90;95.20;;;;;;4976955;28;20022;-66
2023/01/08 00:06:05;;;;;;;9.77;4.80;;;6.00;94.70;;;;;;4977287;28;19948;-66
2023/01/08 00:08:32;;;;;;;7.43;4.65;;;6.00;94.50;;;;;;4972073;28;20144;-67
2023/01/08 00:10:58;;;;;;;11.15;5.90;;;6.00;94.50;;;;;;4972296;28;20046;-66
2023/01/08 00:13:23;;;;;;;8.75;5.20;;;6.00;94.50;;;;;;4970499;28;20064;-66
2023/01/08 00:15:49;;;;;;;7.47;4.70;;;6.00;94.20;;;;;;4972642;28;20084;-66
2023/01/08 00:18:15;;;;;;;7.47;4.88;;;6.00;94.30;;;;;;4971989;28;20107;-66
2023/01/08 00:20:41;;;;;;;7.90;4.50;;;5.90;94.60;;;;;;4978283;28;20030;-69
2023/01/08 00:23:14;;;;;;;13.75;7.18;;;5.70;94.90;;;;;;4969088;28;20409;-65
2023/01/08 00:25:40;;;;;;;8.90;5.22;;;5.60;95.40;;;;;;4973885;28;20082;-67
2023/01/08 00:28:06;;;;;;;7.85;4.13;;;5.70;95.30;;;;;;4982728;28;20034;-65
2023/01/08 00:30:31;;;;;;;6.85;3.67;;;5.80;94.90;;;;;;4971702;28;20063;-66
2023/01/08 00:33:00;;;;;;;6.22;3.85;;;5.90;94.70;;;;;;4972988;28;20046;-66
2023/01/08 00:35:26;;;;;;;8.10;3.78;;;5.90;94.50;;;;;;4983573;28;20482;-67
2023/01/08 00:37:55;;;;;;;7.63;4.10;;;6.00;94.20;;;;;;4969910;28;20296;-66
2023/01/08 00:40:20;;;;;;;6.45;3.58;;;6.20;93.70;;;;;;4971694;28;20424;-66
2023/01/08 00:42:46;;;;;;;5.97;3.70;;;6.20;93.60;;;;;;4976422;28;20128;-68
2023/01/08 00:45:12;;;;;;;7.13;3.95;;;6.20;93.50;;;;;;4987715;28;20065;-66
2023/01/08 00:47:37;;;;;;;5.82;3.40;;;6.20;93.30;;;;;;4973316;28;20042;-67
2023/01/08 00:50:03;;;;;;;6.18;3.22;;;6.10;93.40;;;;;;4975728;28;20058;-67
2023/01/08 00:52:29;;;;;;;5.57;3.28;;;6.20;93.20;;;;;;4972591;28;20031;-66
2023/01/08 00:54:54;;;;;;;6.30;3.40;;;6.20;93.10;;;;;;4972114;28;20030;-66
2023/01/08 00:57:20;;;;;;;5.03;3.00;;;6.10;93.30;;;;;;4976871;28;20038;-66
2023/01/08 00:59:45;;;;;;;5.95;3.25;;;6.20;92.90;;;;;;4975556;28;20034;-67
2023/01/08 01:02:11;;;;;;;5.57;3.70;;;6.20;92.80;;;;;;4977014;28;20033;-67
2023/01/08 01:04:37;;;;;;;5.45;3.10;;;6.30;92.50;;;;;;4983701;28;20113;-67
2023/01/08 01:07:05;;;;;;;5.35;3.33;;;6.20;92.50;;;;;;4974109;28;20038;-66
2023/01/08 01:09:31;;;;;;;6.03;3.42;;;6.10;93.00;;;;;;4973712;28;20138;-66
2023/01/08 01:12:00;;;;;;;5.80;3.33;;;6.10;93.00;;;;;;4973406;28;20034;-65
2023/01/08 01:14:25;;;;;;;5.07;3.20;;;6.10;93.10;;;;;;4974478;28;20054;-66
2023/01/08 01:16:51;;;;;;;5.07;3.10;;;6.10;93.10;;;;;;4973369;28;20161;-66
2023/01/08 01:19:17;;;;;;;6.40;3.38;;;6.10;93.10;;;;;;4967602;28;20077;-67
2023/01/08 01:21:42;;;;;;;6.50;3.42;;;6.10;93.20;;;;;;4973506;28;20042;-67
2023/01/08 01:24:11;;;;;;;6.18;3.10;;;6.10;93.20;;;;;;4973094;28;20142;-66
2023/01/08 01:26:40;;;;;;;5.40;2.90;;;6.00;93.20;;;;;;4978114;28;20052;-66
2023/01/08 01:29:06;;;;;;;5.90;3.47;;;6.00;93.40;;;;;;4984876;28;20033;-66
2023/01/08 01:31:32;;;;;;;7.85;4.25;;;6.00;93.40;;;;;;4973311;28;20035;-65
2023/01/08 01:33:58;;;;;;;25.15;12.70;;;6.00;93.40;;;;;;4982401;28;20033;-66
2023/01/08 01:36:24;;;;;;;5.97;3.28;;;6.00;93.20;;;;;;4976334;28;20868;-65
2023/01/08 01:38:54;;;;;;;11.40;6.18;;;6.00;93.10;;;;;;4973164;28;20038;-66
2023/01/08 01:41:29;;;;;;;18.00;9.73;;;6.20;92.80;;;;;;4972876;28;20062;-66
2023/01/08 01:43:57;;;;;;;15.80;7.65;;;6.30;92.40;;;;;;4976586;28;20456;-66
2023/01/08 01:46:36;;;;;;;5.07;3.05;;;6.30;92.30;;;;;;4979368;28;20030;-66
2023/01/08 01:49:07;;;;;;;11.98;6.57;;;6.30;92.30;;;;;;4973057;28;20030;-66
2023/01/08 01:51:34;;;;;;;5.95;3.10;;;6.40;91.70;;;;;;4972966;28;20045;-66
2023/01/08 01:54:02;;;;;;;6.43;3.28;;;6.50;91.70;;;;;;4972330;28;20170;-65
2023/01/08 01:56:31;;;;;;;6.15;3.53;;;6.50;91.80;;;;;;4973425;28;21612;-66
2023/01/08 01:58:57;;;;;;;7.25;3.55;;;6.40;91.70;;;;;;4972738;28;20030;-65
2023/01/08 02:01:24;;;;;;;6.47;3.40;;;6.40;91.80;;;;;;4975543;28;20089;-65
2023/01/08 02:03:49;;;;;;;8.65;4.57;;;6.40;91.70;;;;;;4976273;28;20391;-65
2023/01/08 02:06:23;;;;;;;6.45;3.47;;;6.30;91.90;;;;;;4977808;28;20038;-65
2023/01/08 02:09:14;;;;;;;6.57;3.10;;;6.20;92.20;;;;;;4971856;28;20023;-65
2023/01/08 02:12:15;;;;;;;6.13;3.92;;;6.30;92.10;;;;;;4972839;28;20031;-65
2023/01/08 02:15:15;;;;;;;7.20;3.65;;;6.30;91.90;;;;;;4974436;28;20085;-66
2023/01/08 02:18:02;;;;;;;5.95;3.30;;;6.60;91.00;;;;;;4945247;28;20137;-65
2023/01/08 02:20:35;;;;;;;5.25;2.90;;;6.80;90.40;;;;;;4970088;28;20022;-66
2023/01/08 02:23:25;;;;;;;6.00;2.67;;;6.80;89.70;;;;;;4970533;28;20065;-67
2023/01/08 02:26:13;;;;;;;5.40;2.97;;;7.00;88.70;;;;;;4975256;28;20053;-66
2023/01/08 02:28:44;;;;;;;5.13;2.63;;;7.10;88.70;;;;;;4978125;28;20026;-67
2023/01/08 02:31:11;;;;;;;5.15;2.80;;;7.10;87.90;;;;;;4973610;28;20056;-66
2023/01/08 02:33:39;;;;;;;5.53;3.15;;;7.30;87.50;;;;;;4976512;28;20018;-65
2023/01/08 02:36:22;;;;;;;8.02;3.28;;;7.30;87.70;;;;;;4983406;28;20034;-65
2023/01/08 02:39:15;;;;;;;6.00;3.35;;;7.20;88.20;;;;;;4973728;28;20312;-66
2023/01/08 02:42:15;;;;;;;5.65;3.25;;;7.00;88.70;;;;;;4972341;28;20069;-65
2023/01/08 02:44:54;;;;;;;6.20;3.35;;;6.90;89.00;;;;;;4959086;28;20039;-66
2023/01/08 02:47:36;;;;;;;7.22;3.35;;;6.90;88.90;;;;;;4971379;28;20043;-66
2023/01/08 02:50:08;;;;;;;5.22;2.72;;;6.80;89.10;;;;;;4972083;28;20039;-66
2023/01/08 02:52:39;;;;;;;5.97;3.20;;;6.90;88.40;;;;;;4974590;28;20157;-64
2023/01/08 02:55:06;;;;;;;5.80;3.17;;;7.00;88.10;;;;;;4971287;28;20041;-66
2023/01/08 02:57:33;;;;;;;5.07;2.75;;;7.00;87.90;;;;;;4973463;28;20427;-66
2023/01/08 02:59:59;;;;;;;5.53;2.55;;;7.10;87.60;;;;;;4971631;28;20031;-65
2023/01/08 03:02:30;;;;;;;6.32;2.85;;;7.10;87.60;;;;;;4971862;28;20041;-65
2023/01/08 03:05:13;;;;;;;4.70;2.47;;;7.10;87.10;;;;;;4983414;28;20035;-65
2023/01/08 03:07:39;;;;;;;5.47;2.72;;;7.10;87.40;;;;;;4969843;28;20131;-67
2023/01/08 03:10:05;;;;;;;5.70;2.60;;;7.10;87.40;;;;;;4972348;28;20902;-66
2023/01/08 03:12:47;;;;;;;6.07;2.80;;;7.20;87.10;;;;;;4974681;28;20042;-67
2023/01/08 03:15:21;;;;;;;8.57;2.63;;;7.20;87.10;;;;;;4971851;28;20037;-67
2023/01/08 03:17:49;;;;;;;;;;;7.10;87.20;;;;;;4972954;28;20035;-67
2023/01/08 03:20:19;;;;;;;4.80;2.42;;;7.10;86.80;;;;;;4972971;28;20298;-66
2023/01/08 03:22:48;;;;;;;5.40;2.53;;;7.20;86.80;;;;;;4971291;28;20035;-67
2023/01/08 03:25:17;;;;;;;4.43;2.40;;;7.20;87.00;;;;;;4974427;28;20064;-66
2023/01/08 03:27:51;;;;;;;6.03;2.78;;;7.20;86.60;;;;;;4985650;28;20470;-66
2023/01/08 03:30:19;;;;;;;4.93;2.45;;;7.30;86.30;;;;;;4996288;28;20033;-66
2023/01/08 03:32:47;;;;;;;5.63;3.08;;;7.60;84.40;;;;;;4998480;28;20308;-66
2023/01/08 03:35:17;;;;;;;6.70;3.28;;;7.80;84.90;;;;;;4996021;28;20097;-66
2023/01/08 03:37:48;;;;;;;5.93;3.35;;;7.70;85.50;;;;;;4978094;28;20030;-66
2023/01/08 03:40:20;;;;;;;4.30;2.22;;;7.40;86.60;;;;;;4971495;28;20494;-66
2023/01/08 03:42:46;;;;;;;4.13;2.22;;;7.70;84.30;;;;;;4971919;28;20062;-66
2023/01/08 03:45:12;;;;;;;5.90;3.42;;;8.00;83.70;;;;;;4976484;28;20121;-66
2023/01/08 03:47:38;;;;;;;5.70;2.00;;;7.90;84.90;;;;;;4994484;28;20026;-66
2023/01/08 03:50:08;;;;;;;4.15;2.20;;;8.30;82.50;;;;;;4975928;28;20039;-66
2023/01/08 03:52:34;;;;;;;5.95;2.80;;;8.30;82.60;;;;;;4969578;28;20058;-65
2023/01/08 03:54:59;;;;;;;6.53;2.70;;;8.10;83.60;;;;;;4970840;28;21070;-66
2023/01/08 03:57:25;;;;;;;4.97;2.25;;;8.30;83.00;;;;;;4990726;28;20022;-67
2023/01/08 03:59:51;;;;;;;4.78;2.20;;;8.10;83.30;;;;;;4994400;28;20077;-66
2023/01/08 04:02:16;;;;;;;4.70;2.30;;;8.30;82.60;;;;;;4976170;28;20031;-67
2023/01/08 04:04:42;;;;;;;5.65;2.63;;;8.30;82.90;;;;;;4977341;28;20097;-66
2023/01/08 04:07:10;;;;;;;5.32;2.67;;;8.00;83.70;;;;;;4969120;28;20034;-66
2023/01/08 04:09:39;;;;;;;7.30;2.72;;;7.80;84.30;;;;;;4970598;28;20550;-66
2023/01/08 04:12:05;;;;;;;7.53;2.63;;;7.80;84.90;;;;;;4984898;28;20029;-68
2023/01/08 04:14:30;;;;;;;5.38;2.80;;;7.70;85.40;;;;;;4970668;28;20018;-66
2023/01/08 04:16:56;;;;;;;5.50;2.63;;;7.70;85.70;;;;;;4970147;28;20377;-66
2023/01/08 04:19:21;;;;;;;5.97;2.50;;;7.80;85.60;;;;;;4972424;28;20026;-66
2023/01/08 04:21:52;;;;;;;4.68;2.55;;;8.00;85.20;;;;;;4972017;28;20414;-66
2023/01/08 04:24:18;;;;;;;4.70;2.42;;;8.10;85.00;;;;;;4970802;28;20049;-66
2023/01/08 04:26:43;;;;;;;7.18;3.28;;;8.10;85.00;;;;;;4970716;28;20129;-66
2023/01/08 04:29:11;;;;;;;5.65;3.08;;;8.10;84.80;;;;;;4980870;28;20702;-66
2023/01/08 04:31:36;;;;;;;6.30;3.15;;;7.90;85.00;;;;;;4971961;28;21180;-67
2023/01/08 04:34:02;;;;;;;5.97;3.45;;;7.70;86.00;;;;;;4970273;28;20031;-66
2023/01/08 04:36:28;;;;;;;8.00;4.13;;;7.30;87.60;;;;;;4968249;28;20026;-66
2023/01/08 04:38:53;;;;;;;6.65;3.95;;;7.00;88.70;;;;;;4970089;28;20034;-66
2023/01/08 04:41:19;;;;;;;6.68;3.47;;;6.70;89.90;;;;;;4978906;28;20031;-66
2023/01/08 04:43:47;;;;;;;7.45;4.13;;;6.50;91.10;;;;;;4993749;28;20026;-66
2023/01/08 04:46:13;;;;;;;8.75;4.90;;;6.30;92.20;;;;;;4988638;28;20427;-66
2023/01/08 04:48:38;;;;;;;8.25;4.43;;;6.10;93.10;;;;;;4984481;28;20037;-65
2023/01/08 04:51:04;;;;;;;7.65;4.45;;;5.90;93.90;;;;;;4972737;28;20386;-65
2023/01/08 04:53:33;;;;;;;8.38;4.35;;;5.70;94.50;;;;;;4975403;28;20045;-65
2023/01/08 04:56:07;;;;;;;9.73;4.78;;;5.60;95.20;;;;;;4973816;28;20030;-65
2023/01/08 04:58:35;;;;;;;7.22;4.47;;;5.60;95.70;;;;;;4986947;28;20019;-65
2023/01/08 05:01:17;;;;;;;9.02;4.53;;;5.60;96.00;;;;;;4998073;28;20033;-68
2023/01/08 05:03:42;;;;;;;7.93;4.82;;;5.60;96.20;;;;;;5000314;28;20029;-66
2023/01/08 05:06:08;;;;;;;10.32;5.07;;;5.60;96.40;;;;;;5007388;28;20419;-66
2023/01/08 05:08:34;;;;;;;9.68;5.03;;;5.60;96.60;;;;;;4996620;28;20014;-66
2023/01/08 05:11:00;;;;;;;7.68;3.92;;;5.60;96.70;;;;;;5000085;28;20488;-66
2023/01/08 05:13:26;;;;;;;7.10;4.28;;;5.70;97.00;;;;;;4997528;28;20045;-66
2023/01/08 05:15:52;;;;;;;7.25;3.92;;;5.80;97.30;;;;;;4997599;28;20101;-66
2023/01/08 05:18:17;;;;;;;7.35;3.67;;;5.90;97.20;;;;;;4996946;28;20121;-65
2023/01/08 05:20:43;;;;;;;6.35;3.50;;;6.10;97.00;;;;;;4998248;28;20027;-66
2023/01/08 05:23:08;;;;;;;6.75;3.70;;;6.20;97.10;;;;;;5000474;28;20034;-66
2023/01/08 05:25:34;;;;;;;5.75;3.60;;;6.40;97.20;;;;;;5010016;28;20036;-68
2023/01/08 05:28:00;;;;;;;6.32;3.45;;;6.50;97.00;;;;;;5002810;28;20031;-66
2023/01/08 05:30:26;;;;;;;7.38;4.03;;;6.60;97.00;;;;;;4994690;28;20085;-66
2023/01/08 05:32:51;;;;;;;7.07;3.33;;;6.60;97.00;;;;;;4998453;28;20046;-66
2023/01/08 05:35:17;;;;;;;6.38;3.67;;;6.70;97.30;;;;;;4996644;28;20499;-65
2023/01/08 05:37:43;;;;;;;7.60;3.42;;;6.70;97.40;;;;;;4996643;28;20057;-65
2023/01/08 05:40:09;;;;;;;6.80;4.32;;;6.80;97.70;;;;;;4996484;28;20384;-66
2023/01/08 05:42:36;;;;;;;8.25;3.20;;;6.80;97.70;;;;;;4997282;28;20316;-66
2023/01/08 05:45:03;;;;;;;5.93;3.40;;;6.90;97.70;;;;;;4995699;28;20137;-66
2023/01/08 05:47:31;;;;;;;5.65;3.35;;;7.00;97.60;;;;;;4996370;28;20025;-66
2023/01/08 05:49:56;;;;;;;8.55;4.50;;;7.00;97.70;;;;;;4983018;28;20030;-66
2023/01/08 05:52:22;;;;;;;6.25;3.22;;;7.00;97.40;;;;;;4994916;28;20026;-66
2023/01/08 05:54:48;;;;;;;6.90;4.25;;;6.90;97.80;;;;;;4995915;28;20033;-66
2023/01/08 05:57:13;;;;;;;8.55;3.72;;;6.80;98.00;;;;;;4996320;28;20026;-66
2023/01/08 05:59:39;;;;;;;6.28;3.60;;;6.80;98.00;;;;;;4983926;28;20062;-65
2023/01/08 06:02:06;;;;;;;6.20;3.30;;;6.60;98.00;;;;;;4983849;28;20038;-66
2023/01/08 06:04:31;;;;;;;9.63;3.50;;;6.60;98.00;;;;;;4990083;28;20315;-65
2023/01/08 06:06:57;;;;;;;6.78;3.47;;;6.60;98.00;;;;;;4995074;28;20022;-66
2023/01/08 06:09:23;;;;;;;6.00;3.40;;;6.60;98.00;;;;;;4998817;28;20046;-65
2023/01/08 06:11:48;;;;;;;3.90;2.20;;;6.70;98.00;;;;;;4995977;28;20034;-66
2023/01/08 06:14:15;;;;;;;4.60;2.50;;;6.80;98.00;;;;;;4978739;28;21487;-66
2023/01/08 06:16:42;;;;;;;3.33;1.60;;;6.80;98.00;;;;;;4982534;28;20048;-66
2023/01/08 06:19:09;;;;;;;5.63;1.67;;;7.00;98.00;;;;;;4998834;28;20030;-65
2023/01/08 06:21:35;;;;;;;5.03;1.90;;;7.10;98.00;;;;;;5002625;28;20026;-67
2023/01/08 06:24:00;;;;;;;4.78;1.83;;;7.30;98.00;;;;;;4994810;28;20042;-65
2023/01/08 06:26:26;;;;;;;4.78;1.60;;;7.30;98.00;;;;;;4997781;28;20089;-66
2023/01/08 06:28:51;;;;;;;3.92;1.60;;;7.20;98.00;;;;;;4995867;28;20046;-65
2023/01/08 06:31:17;;;;;;;2.92;1.50;;;7.10;98.00;;;;;;4996016;28;20027;-67
2023/01/08 06:33:42;;;;;;;4.88;1.83;;;7.00;98.00;;;;;;4994711;28;20030;-68
2023/01/08 06:36:08;;;;;;;2.80;1.38;;;6.90;98.00;;;;;;4982921;28;20026;-70
2023/01/08 06:38:36;;;;;;;2.42;1.50;;;7.00;98.00;;;;;;4995388;28;20025;-69
2023/01/08 06:41:03;;;;;;;3.63;1.45;;;7.00;98.00;;;;;;4996503;28;20066;-69
2023/01/08 06:43:29;;;;;;;2.70;1.30;;;7.20;98.00;;;;;;4995055;28;20026;-69
2023/01/08 06:45:57;;;;;;;2.10;1.20;;;7.10;98.00;;;;;;4995950;28;20427;-69
2023/01/08 06:48:23;;;;;;;2.38;1.30;;;7.10;98.00;;;;;;4995836;28;20109;-68
2023/01/08 06:50:49;;;;;;;2.80;1.20;;;7.00;98.00;;;;;;4996425;28;20031;-69
2023/01/08 06:53:15;;;;;;;3.47;1.20;;;6.90;98.00;;;;;;4998683;28;20473;-68
2023/01/08 06:55:41;;;;;;;2.80;1.38;;;7.00;98.00;;;;;;4998098;28;20049;-69
2023/01/08 06:58:08;;;;;;;2.33;1.20;;;7.00;98.00;;;;;;4997163;28;20034;-66
2023/01/08 07:00:34;;;;;;;1.85;1.17;;;7.10;98.00;;;;;;4996754;28;20071;-66
2023/01/08 07:02:59;;;;;;;3.10;1.50;;;7.00;98.00;;;;;;4996770;28;20022;-68
2023/01/08 07:05:25;;;;;;;4.47;1.70;;;7.00;98.00;;;;;;4996744;28;20356;-68
2023/01/08 07:07:51;;;;;;;4.07;1.80;;;6.90;97.90;;;;;;4995559;28;20431;-69
2023/01/08 07:10:16;;;;;;;3.10;1.40;;;6.80;98.00;;;;;;4996796;28;20447;-68
2023/01/08 07:12:42;;;;;;;3.47;1.45;;;6.80;98.00;;;;;;5010047;28;20026;-68
2023/01/08 07:15:08;;;;;;;2.97;1.33;;;6.90;98.00;;;;;;4998116;28;20027;-68
2023/01/08 07:17:34;;;;;;;2.83;1.25;;;6.80;98.00;;;;;;4984842;28;20023;-68
2023/01/08 07:19:59;;;;;;;2.58;1.48;;;6.70;98.00;;;;;;4994482;28;20399;-68
2023/01/08 07:22:26;;;;;;;2.65;1.27;;;6.80;98.00;;;;;;4990647;28;20031;-68
2023/01/08 07:24:51;;;;;;;3.42;1.45;;;6.70;98.00;;;;;;4999537;28;20699;-69
2023/01/08 07:27:17;;;;;;;3.47;1.58;;;6.70;97.40;;;;;;4994833;28;20109;-67
2023/01/08 07:29:43;;;;;;;2.45;1.40;;;6.60;97.20;;;;;;4994588;28;20030;-68
2023/01/08 07:32:09;;;;;;;4.07;1.88;;;6.60;97.90;;;;;;4988036;28;20038;-69
2023/01/08 07:34:35;;;;;;;2.28;1.30;;;6.70;98.00;;;;;;4991109;28;20037;-69
2023/01/08 07:37:01;;;;;;;3.42;1.48;;;6.70;98.00;;;;;;4994584;28;20030;-68
2023/01/08 07:39:27;;;;;;;4.85;1.40;;;6.60;98.00;;;;;;4992189;28;20114;-68
2023/01/08 07:41:52;;;;;;;3.05;1.30;;;6.60;98.00;;;;;;4995310;28;20030;-68
2023/01/08 07:44:18;;;;;;;3.30;1.40;;;6.70;98.00;;;;;;4994395;28;20041;-68
2023/01/08 07:46:44;;;;;;;2.97;1.40;;;6.70;98.00;;;;;;4997250;28;20435;-67
2023/01/08 07:49:10;;;;;;;3.88;1.45;;;6.70;98.00;;;;;;4993880;28;20449;-67
2023/01/08 07:51:36;;;;;;;2.60;1.30;;;6.80;98.00;;;;;;4992608;28;20034;-68
2023/01/08 07:54:01;;;;;;;3.58;1.50;;;6.80;98.00;;;;;;4980698;28;20035;-69
2023/01/08 07:56:27;;;;;;;3.25;1.75;;;6.80;98.00;;;;;;4990782;28;20050;-70
2023/01/08 07:58:53;;;;;;;3.17;1.50;;;6.70;98.00;;;;;;4993845;28;20046;-70
2023/01/08 08:01:18;;;;;;;2.97;1.50;;;6.70;97.30;;;;;;4993669;28;20019;-70
2023/01/08 08:03:44;;;;;;;3.60;1.63;;;6.70;98.00;;;;;;4997302;28;20305;-70
2023/01/08 08:06:09;;;;;;;2.55;1.40;;;6.60;97.80;;;;;;5001615;28;20053;-70
2023/01/08 08:08:35;;;;;;;3.47;1.60;;;6.60;98.00;;;;;;5002118;28;20040;-70
2023/01/08 08:11:01;;;;;;;3.13;1.60;;;6.60;98.00;;;;;;4992702;28;20042;-69
2023/01/08 08:13:27;;;;;;;2.78;1.20;;;6.60;97.20;;;;;;4990686;28;20030;-69
2023/01/08 08:15:53;;;;;;;3.22;1.80;;;6.70;98.00;;;;;;4990018;28;20049;-69
2023/01/08 08:18:18;;;;;;;4.10;1.40;;;6.70;97.70;;;;;;4993746;28;20035;-69
2023/01/08 08:20:44;;;;;;;2.70;1.30;;;6.80;98.00;;;;;;4995321;28;20093;-69
2023/01/08 08:23:13;;;;;;;3.67;1.50;;;6.70;98.00;;;;;;4995344;28;20036;-70
2023/01/08 08:25:42;;;;;;;3.17;1.70;;;6.70;97.70;;;;;;4997151;28;20026;-69
2023/01/08 08:28:09;;;;;;;2.78;1.40;;;6.60;97.20;;;;;;4997967;28;20030;-69
2023/01/08 08:30:36;;;;;;;4.95;1.75;;;6.60;96.80;;;;;;4996580;28;20026;-69
2023/01/08 08:33:04;;;;;;;2.90;1.55;;;6.60;97.20;;;;;;4997999;28;20026;-70
2023/01/08 08:35:30;;;;;;;3.80;1.75;;;6.50;96.00;;;;;;4999003;28;20088;-69
2023/01/08 08:37:56;;;;;;;4.93;1.50;;;6.50;95.60;;;;;;4995256;28;20324;-69
2023/01/08 08:40:22;;;;;;;3.33;1.52;;;6.50;97.80;;;;;;4998220;28;20029;-71
2023/01/08 08:42:48;;;;;;;3.60;1.60;;;6.50;96.10;;;;;;4997071;28;20085;-70
2023/01/08 08:45:14;;;;;;;3.08;1.60;;;6.50;96.60;;;;;;4995037;28;20061;-69
2023/01/08 08:47:39;;;;;;;3.38;1.48;;;6.50;97.80;;;;;;4997839;28;20109;-69
2023/01/08 08:50:06;;;;;;;3.35;1.60;;;6.50;96.30;;;;;;4996973;28;20035;-69
2023/01/08 08:52:33;;;;;;;2.72;1.25;;;6.60;98.00;;;;;;4995875;28;20066;-68
2023/01/08 08:54:59;;;;;;;4.15;1.45;;;6.60;98.00;;;;;;4995613;28;20104;-69
2023/01/08 08:57:26;;;;;;;5.00;1.60;;;6.60;98.00;;;;;;4996257;28;20455;-68
2023/01/08 08:59:51;;;;;;;2.97;1.38;;;6.60;98.00;;;;;;4996695;28;20165;-68
2023/01/08 09:02:17;;;;;;;3.75;1.55;;;6.60;98.00;;;;;;4998629;28;20113;-69
2023/01/08 09:04:43;;;;;;;2.40;1.30;;;6.60;98.00;;;;;;4998094;28;20026;-68
2023/01/08 09:07:08;;;;;;;3.67;1.20;;;6.60;98.00;;;;;;4997932;28;20031;-69
2023/01/08 09:09:34;;;;;;;2.90;1.40;;;6.60;98.00;;;;;;4995820;28;20050;-68
2023/01/08 09:11:59;;;;;;;2.70;1.30;;;6.60;98.00;;;;;;4995656;28;20033;-69
2023/01/08 09:14:25;;;;;;;3.95;1.48;;;6.70;98.00;;;;;;4989625;28;20038;-70
2023/01/08 09:16:50;;;;;;;2.75;1.27;;;6.60;98.00;;;;;;4996902;28;20270;-69
2023/01/08 09:19:16;;;;;;;2.63;1.23;;;6.80;98.00;;;;;;4993496;28;20033;-70
2023/01/08 09:21:42;;;;;;;3.88;1.48;;;6.80;98.00;;;;;;4997836;28;20085;-69
2023/01/08 09:24:08;;;;;;;2.72;1.15;;;6.80;98.00;;;;;;4993726;28;20034;-68
2023/01/08 09:26:33;;;;;;;2.70;1.30;;;6.80;98.00;;;;;;4999999;28;20026;-68
2023/01/08 09:28:59;;;;;;;3.47;1.40;;;6.80;98.00;;;;;;4995766;28;20434;-68
2023/01/08 09:31:26;;;;;;;2.85;1.40;;;6.80;98.00;;;;;;4993735;28;20432;-68
2023/01/08 09:33:51;;;;;;;2.78;1.50;;;6.80;98.00;;;;;;4989854;28;20085;-68
2023/01/08 09:36:17;;;;;;;4.70;1.63;;;6.80;97.60;;;;;;4997368;28;20038;-69
2023/01/08 09:38:44;;;;;;;3.63;1.35;;;6.90;98.00;;;;;;4995779;28;20023;-68
2023/01/08 09:41:27;;;;;;;3.53;1.98;;;6.90;98.00;;;;;;4993811;28;20420;-68
2023/01/08 09:43:54;;;;;;;12.93;6.10;;;6.90;98.00;;;;;;5011973;28;20493;-68
2023/01/08 09:46:23;;;;;;;4.35;2.03;;;6.90;98.00;;;;;;4994632;28;20036;-69
2023/01/08 09:48:51;;;;;;;5.72;2.40;;;6.90;98.00;;;;;;4996678;28;20034;-69
2023/01/08 09:51:19;;;;;;;7.57;4.25;;;7.00;98.00;;;;;;4993556;28;20309;-69
2023/01/08 09:53:54;;;;;;;2.30;1.10;;;7.00;98.00;;;;;;4983929;28;20420;-69
2023/01/08 09:56:20;;;;;;;4.28;2.40;;;7.00;98.00;;;;;;4997290;28;20058;-69
2023/01/08 09:58:54;;;;;;;2.42;1.30;;;7.10;98.00;;;;;;4997448;28;20030;-69
2023/01/08 10:01:26;;;;;;;2.65;1.13;;;7.20;98.00;;;;;;4994058;28;20106;-69
2023/01/08 10:04:13;;;;;;;3.30;1.50;;;7.40;98.00;;;;;;4993379;28;20122;-69
2023/01/08 10:07:00;;;;;;;3.45;1.40;;;7.40;98.00;;;;;;4992840;28;20105;-69
2023/01/08 10:09:29;;;;;;;1.73;1.00;;;7.50;98.00;;;;;;4995822;28;20042;-68
2023/01/08 10:11:59;;;;;;;4.53;1.20;;;7.60;98.00;;;;;;4998563;28;20084;-68
2023/01/08 10:14:29;;;;;;;3.63;1.40;;;7.80;98.00;;;;;;4996120;28;20030;-67
2023/01/08 10:16:59;;;;;;;3.03;1.10;;;7.80;98.00;;;;;;4995829;28;20031;-68
2023/01/08 10:19:25;;;;;;;3.20;1.60;;;7.90;98.00;;;;;;4996071;28;20018;-67
2023/01/08 10:21:51;;;;;;;1.35;0.90;;;8.00;98.00;;;;;;5005182;28;20081;-67
2023/01/08 10:24:18;;;;;;;2.38;1.00;;;8.00;98.00;;;;;;4994373;28;20416;-68
2023/01/08 10:26:44;;;;;;;2.15;1.10;;;8.00;98.00;;;;;;4994692;28;20061;-68
2023/01/08 10:29:20;;;;;;;2.97;1.30;;;8.10;98.00;;;;;;4994987;28;20031;-68
2023/01/08 10:31:51;;;;;;;1.80;1.10;;;8.10;98.00;;;;;;4994626;28;20045;-67
2023/01/08 10:34:27;;;;;;;3.67;2.05;;;8.20;98.00;;;;;;4995432;28;20072;-68
2023/01/08 10:36:54;;;;;;;2.92;1.23;;;8.30;98.00;;;;;;4992563;28;20026;-67
2023/01/08 10:39:25;;;;;;;3.03;1.65;;;8.40;97.90;;;;;;4998796;28;20120;-67
2023/01/08 10:41:56;;;;;;;3.88;1.30;;;8.30;98.00;;;;;;4990666;28;20034;-67
2023/01/08 10:44:24;;;;;;;2.50;1.30;;;8.30;98.00;;;;;;4996731;28;20335;-67
2023/01/08 10:46:54;;;;;;;2.80;1.20;;;8.40;98.00;;;;;;4992979;28;20026;-66
2023/01/08 10:49:33;;;;;;;4.72;1.90;;;8.40;98.00;;;;;;4992194;28;20053;-67
2023/01/08 10:51:59;;;;;;;2.80;1.38;;;8.50;98.00;;;;;;4988456;28;20027;-70
2023/01/08 10:54:35;;;;;;;4.20;1.52;;;8.50;97.80;;;;;;4987396;28;20038;-67
2023/01/08 10:57:17;;;;;;;3.78;1.50;;;8.60;97.80;;;;;;4992284;28;20026;-69
2023/01/08 10:59:43;;;;;;;2.95;1.60;;;8.60;97.60;;;;;;4991359;28;20109;-68
2023/01/08 11:02:20;;;;;;;8.70;3.80;;;8.70;97.70;;;;;;4994128;28;20122;-68
2023/01/08 11:04:50;;;;;;;2.83;1.20;;;8.70;97.20;;;;;;4992531;28;20366;-69
2023/01/08 11:07:22;;;;;;;43.13;29.75;;;8.60;96.90;;;;;;4989713;28;20030;-69
2023/01/08 11:09:50;;;;;;;3.95;1.88;;;8.80;97.80;;;;;;4988165;28;20046;-68
2023/01/08 11:12:39;;;;;;;3.50;1.75;;;8.80;96.70;;;;;;4995004;28;20026;-68
2023/01/08 11:15:30;;;;;;;2.97;1.52;;;8.70;96.70;;;;;;4989462;28;20034;-69
2023/01/08 11:18:20;;;;;;;3.08;1.35;;;8.80;96.90;;;;;;4993016;28;20113;-69
2023/01/08 11:20:47;;;;;;;2.25;1.30;;;8.80;96.00;;;;;;4993592;28;20311;-69
2023/01/08 11:23:16;;;;;;;1.88;0.98;;;9.00;95.70;;;;;;4993744;28;20027;-69
2023/01/08 11:25:51;;;;;;;2.75;1.33;;;8.90;96.20;;;;;;4999675;28;20334;-69
2023/01/08 11:28:30;;;;;;;3.60;2.38;;;9.00;96.80;;;;;;5002691;28;20034;-68
2023/01/08 11:31:05;;;;;;;5.72;3.63;;;9.10;96.00;;;;;;4994318;28;20031;-68
2023/01/08 11:33:33;;;;;;;3.92;1.42;;;9.10;96.10;;;;;;5005310;28;20030;-68
2023/01/08 11:36:19;;;;;;;3.40;2.03;;;9.00;95.20;;;;;;4993989;28;20030;-68
2023/01/08 11:38:48;;;;;;;2.88;1.42;;;9.00;96.30;;;;;;4990000;28;20315;-68
2023/01/08 11:41:19;;;;;;;3.00;1.33;;;9.10;95.60;;;;;;4994879;28;20441;-68
2023/01/08 11:44:11;;;;;;;2.95;1.10;;;9.20;95.60;;;;;;4991037;28;20344;-68
2023/01/08 11:46:42;;;;;;;3.13;1.20;;;9.20;94.90;;;;;;4991933;28;20022;-68
2023/01/08 11:49:32;;;;;;;2.05;1.20;;;9.40;94.70;;;;;;4995061;28;20105;-68
2023/01/08 11:52:07;;;;;;;1.90;1.08;;;9.50;94.90;;;;;;5005660;28;20089;-68
2023/01/08 11:55:04;;;;;;;2.30;1.23;;;9.50;93.80;;;;;;4990964;28;20037;-68
2023/01/08 11:57:54;;;;;;;163.93;67.57;;;9.60;94.00;;;;;;4977608;28;20378;-68
2023/01/08 12:00:38;;;;;;;3.67;1.80;;;9.60;93.30;;;;;;4987966;28;20108;-68
2023/01/08 12:03:28;;;;;;;2.47;1.23;;;9.60;92.90;;;;;;4994910;28;20037;-68
2023/01/08 12:06:23;;;;;;;2.90;1.15;;;9.70;93.20;;;;;;4994986;28;20348;-69
2023/01/08 12:09:06;;;;;;;2.60;1.40;;;9.60;92.70;;;;;;4993258;28;20391;-68
2023/01/08 12:11:53;;;;;;;2.38;1.10;;;9.60;93.60;;;;;;4990548;28;20038;-69
2023/01/08 12:14:37;;;;;;;2.22;1.13;;;9.60;92.90;;;;;;4986220;28;20030;-68
2023/01/08 12:17:11;;;;;;;2.20;1.20;;;9.70;93.10;;;;;;4992956;28;20032;-68
2023/01/08 12:19:55;;;;;;;2.90;1.30;;;9.70;93.70;;;;;;4994893;28;20375;-68
2023/01/08 12:22:31;;;;;;;2.75;1.40;;;9.90;92.70;;;;;;4993126;28;20359;-69
2023/01/08 12:25:11;;;;;;;1.70;0.90;;;10.10;92.40;;;;;;4993814;28;20035;-68
2023/01/08 12:27:55;;;;;;;2.70;1.10;;;10.20;92.00;;;;;;4994936;28;20037;-68
2023/01/08 12:30:58;;;;;;;1.55;0.90;;;10.30;91.20;;;;;;4989435;28;20022;-67
2023/01/08 12:33:38;;;;;;;1.73;0.90;;;10.50;91.70;;;;;;4993198;28;20052;-68
2023/01/08 12:36:16;;;;;;;2.22;0.95;;;10.60;90.20;;;;;;4992872;28;20686;-68
2023/01/08 12:38:43;;;;;;;1.80;1.00;;;10.50;91.00;;;;;;4993780;28;20452;-68
2023/01/08 12:41:16;;;;;;;1.92;1.10;;;10.30;90.60;;;;;;4995391;28;20300;-68
2023/01/08 12:43:54;;;;;;;2.30;1.00;;;10.10;91.00;;;;;;4992221;28;20443;-67
2023/01/08 12:46:21;;;;;;;1.58;0.90;;;9.80;92.10;;;;;;4992263;28;20030;-68
2023/01/08 12:48:49;;;;;;;1.85;1.00;;;9.50;92.20;;;;;;4997716;28;20069;-68
2023/01/08 12:51:25;;;;;;;2.30;0.98;;;9.30;93.50;;;;;;5007277;28;20365;-68
2023/01/08 12:54:24;;;;;;;1.98;1.10;;;9.20;94.30;;;;;;4992161;28;20415;-67
2023/01/08 12:57:15;;;;;;;1.65;0.90;;;9.10;93.90;;;;;;4993544;28;20134;-68
2023/01/08 12:59:47;;;;;;;2.95;1.40;;;9.00;94.30;;;;;;4996247;28;20061;-68
2023/01/08 13:02:30;;;;;;;2.10;1.08;;;8.90;95.40;;;;;;4991902;28;20045;-67
2023/01/08 13:04:55;;;;;;;1.60;1.00;;;8.90;95.50;;;;;;4994896;28;20427;-68
2023/01/08 13:07:32;;;;;;;1.70;1.00;;;8.90;94.90;;;;;;4994316;28;20038;-68
2023/01/08 13:10:04;;;;;;;22.27;9.48;;;8.90;94.60;;;;;;4998754;28;20050;-68
2023/01/08 13:12:40;;;;;;;2.15;1.10;;;8.80;94.60;;;;;;4996090;28;20403;-68